createdAt,value
2019-01-25T00:00:51.049Z,96129.64
2019-01-25T00:03:20.288Z,96122.39
2019-01-25T00:05:49.453Z,96136.83
2019-01-25T00:08:18.583Z,96130.02
2019-01-25T00:10:51.558Z,96130.45
2019-01-25T00:13:20.702Z,96129.03
2019-01-25T00:15:51.838Z,96131.05
2019-01-25T00:18:20.946Z,96129.80
2019-01-25T00:20:56.136Z,96130.59
2019-01-25T00:23:25.245Z,96132.26
2019-01-25T00:25:56.369Z,96138.78
2019-01-25T00:28:27.427Z,96139.63
2019-01-25T00:30:59.039Z,96141.40
2019-01-25T00:33:29.878Z,96143.09
2019-01-25T00:35:59.642Z,96142.64
2019-01-25T00:38:30.928Z,96143.61
2019-01-25T00:41:00.256Z,96149.33
2019-01-25T00:43:29.389Z,96150.72
2019-01-25T00:46:00.359Z,96150.91
2019-01-25T00:48:34.167Z,96147.60
2019-01-25T00:51:03.428Z,96150.28
2019-01-25T00:53:32.764Z,96148.10
2019-01-25T00:56:02.015Z,96147.27
2019-01-25T00:58:33.745Z,96142.02
2019-01-25T01:01:04.895Z,96136.02
2019-01-25T01:03:35.677Z,96139.69
2019-01-25T01:06:05.045Z,96144.94
2019-01-25T01:08:36.852Z,96141.97
2019-01-25T01:11:06.005Z,96147.84
2019-01-25T01:13:35.138Z,96154.75
2019-01-25T01:16:08.165Z,96151.81
2019-01-25T01:18:37.347Z,96151.05
2019-01-25T01:21:06.472Z,96155.09
2019-01-25T01:23:39.182Z,96155.58
2019-01-25T01:26:08.363Z,96152.20
2019-01-25T01:28:39.573Z,96154.45
2019-01-25T01:31:11.389Z,96157.78
2019-01-25T01:33:40.582Z,96158.89
2019-01-25T01:36:12.268Z,96156.77
2019-01-25T01:38:41.489Z,96156.97
2019-01-25T01:41:16.720Z,96157.80
2019-01-25T01:43:47.394Z,96160.81
2019-01-25T01:46:16.527Z,96158.14
2019-01-25T01:48:50.200Z,96164.98
2019-01-25T01:51:20.670Z,96161.17
2019-01-25T01:53:52.806Z,96159.87
2019-01-25T01:56:22.268Z,96160.55
2019-01-25T01:58:52.589Z,96155.92
2019-01-25T02:01:23.618Z,96157.97
2019-01-25T02:03:57.224Z,96161.61
2019-01-25T02:06:26.863Z,96160.14
2019-01-25T02:08:56.442Z,96158.91
2019-01-25T02:11:25.619Z,96157.75
2019-01-25T02:13:54.850Z,96158.53
2019-01-25T02:16:25.319Z,96159.16
2019-01-25T02:18:59.160Z,96157.31
2019-01-25T02:21:33.507Z,96160.27
2019-01-25T02:24:06.074Z,96158.14
2019-01-25T02:26:38.821Z,96153.81
2019-01-25T02:29:07.930Z,96162.41
2019-01-25T02:31:37.054Z,96002.17
2019-01-25T02:34:06.214Z,96161.16
2019-01-25T02:36:46.929Z,96160.78
2019-01-25T02:39:16.240Z,96169.09
2019-01-25T02:41:45.426Z,96174.73
2019-01-25T02:44:16.297Z,96177.25
2019-01-25T02:46:45.769Z,96173.16
2019-01-25T02:49:18.174Z,96168.73
2019-01-25T02:51:50.244Z,96166.50
2019-01-25T02:54:26.075Z,96170.34
2019-01-25T02:56:58.119Z,96168.53
2019-01-25T02:59:30.458Z,96169.11
2019-01-25T03:01:59.759Z,96170.40
2019-01-25T03:04:30.331Z,96165.81
2019-01-25T03:06:59.555Z,96206.04
2019-01-25T03:09:31.551Z,96165.05
2019-01-25T03:12:00.707Z,96176.22
2019-01-25T03:14:35.726Z,96167.46
2019-01-25T03:17:08.039Z,96172.70
2019-01-25T03:19:37.196Z,96171.58
2019-01-25T03:22:12.575Z,96172.59
2019-01-25T03:24:41.735Z,96173.81
2019-01-25T03:27:11.381Z,96173.78
2019-01-25T03:29:40.579Z,96175.91
2019-01-25T03:32:09.798Z,96169.88
2019-01-25T03:34:38.926Z,96175.07
2019-01-25T03:37:17.929Z,96176.95
2019-01-25T03:39:47.473Z,96178.24
2019-01-25T03:42:16.722Z,96174.78
2019-01-25T03:44:46.169Z,96173.66
2019-01-25T03:47:15.848Z,96179.31
2019-01-25T03:49:45.748Z,96178.19
2019-01-25T03:52:18.868Z,96183.13
2019-01-25T03:54:48.061Z,96179.22
2019-01-25T03:57:17.315Z,96183.61
2019-01-25T03:59:46.592Z,96187.16
2019-01-25T04:02:18.690Z,96191.20
2019-01-25T04:04:52.128Z,96188.17
2019-01-25T04:07:22.184Z,96183.91
2019-01-25T04:09:52.244Z,96187.31
2019-01-25T04:12:22.058Z,96192.80
2019-01-25T04:14:54.478Z,96187.47
2019-01-25T04:17:23.519Z,96192.42
2019-01-25T04:19:54.375Z,96198.60
2019-01-25T04:22:38.664Z,96191.64
2019-01-25T04:25:11.725Z,96190.41
2019-01-25T04:27:43.587Z,96194.42
2019-01-25T04:30:17.884Z,96195.06
2019-01-25T04:32:47.368Z,96197.67
2019-01-25T04:35:18.502Z,96201.84
2019-01-25T04:37:48.146Z,96201.39
2019-01-25T04:40:23.011Z,96198.95
2019-01-25T04:42:52.347Z,96203.27
2019-01-25T04:45:24.979Z,96206.03
2019-01-25T04:47:55.078Z,96201.91
2019-01-25T04:50:25.758Z,96208.27
2019-01-25T04:52:55.642Z,96206.23
2019-01-25T04:55:31.721Z,96204.17
2019-01-25T04:58:17.895Z,96197.66
2019-01-25T05:00:48.951Z,96203.95
2019-01-25T05:03:22.619Z,96207.26
2019-01-25T05:05:53.239Z,96206.45
2019-01-25T05:08:22.910Z,96207.58
2019-01-25T05:10:54.259Z,96208.19
2019-01-25T05:13:27.951Z,96211.97
2019-01-25T05:15:57.306Z,96213.89
2019-01-25T05:18:28.416Z,96213.66
2019-01-25T05:21:02.793Z,96216.78
2019-01-25T05:23:33.956Z,96208.09
2019-01-25T05:26:08.815Z,96212.27
2019-01-25T05:28:39.860Z,95903.32
2019-01-25T05:31:10.874Z,96207.38
2019-01-25T05:33:41.457Z,96209.88
2019-01-25T05:36:10.574Z,96210.56
2019-01-25T05:38:48.798Z,96215.23
2019-01-25T05:41:17.993Z,96211.53
2019-01-25T05:43:48.002Z,96253.30
2019-01-25T05:46:17.259Z,96225.36
2019-01-25T05:48:54.196Z,96228.51
2019-01-25T05:51:24.683Z,96231.28
2019-01-25T05:53:54.298Z,96226.64
2019-01-25T05:56:26.764Z,96231.41
2019-01-25T05:59:00.410Z,96228.59
2019-01-25T06:01:35.664Z,96228.59
2019-01-25T06:04:07.307Z,96235.64
2019-01-25T06:06:36.452Z,96236.37
2019-01-25T06:09:10.336Z,96235.55
2019-01-25T06:11:40.463Z,96237.78
2019-01-25T06:14:11.444Z,96235.78
2019-01-25T06:16:44.559Z,96275.76
2019-01-25T06:19:13.995Z,96236.43
2019-01-25T06:21:47.674Z,96249.20
2019-01-25T06:24:17.170Z,96245.47
2019-01-25T06:26:51.754Z,96242.12
2019-01-25T06:29:21.726Z,96241.92
2019-01-25T06:31:50.873Z,96240.64
2019-01-25T06:34:23.920Z,96244.53
2019-01-25T06:36:53.712Z,96252.76
2019-01-25T06:39:26.911Z,96248.23
2019-01-25T06:41:59.072Z,96248.10
2019-01-25T06:44:33.746Z,96258.36
2019-01-25T06:47:07.122Z,96262.89
2019-01-25T06:49:41.865Z,96270.06
2019-01-25T06:52:11.164Z,96264.89
2019-01-25T06:54:42.163Z,96273.02
2019-01-25T06:57:25.986Z,96279.05
2019-01-25T06:59:55.312Z,96275.17
2019-01-25T07:02:34.007Z,96283.98
2019-01-25T07:05:03.741Z,96276.92
2019-01-25T07:07:35.110Z,96287.14
2019-01-25T07:10:07.835Z,96288.36
2019-01-25T07:12:37.381Z,96290.86
2019-01-25T07:15:14.280Z,96293.56
2019-01-25T07:17:44.462Z,96295.78
2019-01-25T07:20:24.962Z,96297.39
2019-01-25T07:23:01.962Z,96339.06
2019-01-25T07:25:32.288Z,96302.56
2019-01-25T07:28:01.417Z,96301.77
2019-01-25T07:30:30.968Z,96310.97
2019-01-25T07:33:00.917Z,96310.39
2019-01-25T07:35:32.482Z,96313.61
2019-01-25T07:38:01.652Z,96166.56
2019-01-25T07:40:31.121Z,96323.36
2019-01-25T07:43:02.504Z,96321.93
2019-01-25T07:45:37.996Z,96325.09
2019-01-25T07:48:09.176Z,96320.80
2019-01-25T07:50:38.440Z,96325.62
2019-01-25T07:53:17.379Z,96319.89
2019-01-25T07:55:46.611Z,96321.73
2019-01-25T07:58:19.081Z,96323.95
2019-01-25T08:00:49.464Z,96317.78
2019-01-25T08:03:19.190Z,96318.48
2019-01-25T08:05:48.361Z,96328.45
2019-01-25T08:08:19.535Z,96326.30
2019-01-25T08:10:49.474Z,96333.73
2019-01-25T08:13:18.717Z,96336.75
2019-01-25T08:15:47.883Z,96335.44
2019-01-25T08:18:17.046Z,96332.11
2019-01-25T08:20:46.262Z,96331.70
2019-01-25T08:23:41.765Z,96330.61
2019-01-25T08:26:10.945Z,96329.13
2019-01-25T08:28:40.095Z,96375.44
2019-01-25T08:31:09.246Z,96377.75
2019-01-25T08:33:39.207Z,96342.20
2019-01-25T08:36:08.865Z,96338.70
2019-01-25T08:38:59.481Z,96345.94
2019-01-25T08:41:30.019Z,96349.34
2019-01-25T08:44:10.249Z,96357.01
2019-01-25T08:46:39.442Z,96354.95
2019-01-25T08:49:09.801Z,96359.55
2019-01-25T08:51:41.297Z,96356.01
2019-01-25T08:54:10.704Z,96361.91
2019-01-25T08:56:43.481Z,96362.10
2019-01-25T08:59:15.681Z,96362.08
2019-01-25T09:01:44.822Z,96357.41
2019-01-25T09:04:14.028Z,96353.55
2019-01-25T09:06:44.371Z,96351.22
2019-01-25T09:09:16.264Z,96358.20
2019-01-25T09:11:48.229Z,96357.63
2019-01-25T09:14:19.238Z,96361.20
2019-01-25T09:16:48.371Z,96361.61
2019-01-25T09:19:21.763Z,96364.47
2019-01-25T09:21:51.615Z,96362.09
2019-01-25T09:24:21.889Z,96362.12
2019-01-25T09:26:51.525Z,96365.33
2019-01-25T09:29:22.072Z,96359.14
2019-01-25T09:31:54.945Z,96394.90
2019-01-25T09:34:24.850Z,96359.52
2019-01-25T09:36:56.739Z,96353.75
2019-01-25T09:39:26.005Z,96357.02
2019-01-25T09:42:00.380Z,96364.17
2019-01-25T09:44:29.556Z,96368.70
2019-01-25T09:47:03.702Z,96372.31
2019-01-25T09:49:38.747Z,96376.43
2019-01-25T09:52:11.028Z,96373.02
2019-01-25T09:54:40.283Z,96380.23
2019-01-25T09:57:14.109Z,96378.64
2019-01-25T09:59:43.279Z,96384.84
2019-01-25T10:02:12.515Z,96387.40
2019-01-25T10:04:41.731Z,96387.41
2019-01-25T10:07:15.988Z,96389.84
2019-01-25T10:09:45.492Z,96381.35
2019-01-25T10:12:15.008Z,96384.13
2019-01-25T10:14:44.560Z,96380.09
2019-01-25T10:17:15.107Z,96384.22
2019-01-25T10:19:47.415Z,96386.00
2019-01-25T10:22:21.952Z,96392.75
2019-01-25T10:24:51.076Z,96396.28
2019-01-25T10:27:21.345Z,96396.64
2019-01-25T10:29:52.340Z,96403.70
2019-01-25T10:32:28.940Z,96399.64
2019-01-25T10:34:59.067Z,96409.09
2019-01-25T10:37:28.224Z,96403.58
2019-01-25T10:40:03.083Z,96404.60
2019-01-25T10:42:32.338Z,96397.19
2019-01-25T10:45:04.481Z,96400.81
2019-01-25T10:47:35.104Z,96396.80
2019-01-25T10:50:16.397Z,96393.45
2019-01-25T10:52:45.575Z,96437.02
2019-01-25T10:55:15.581Z,96395.19
2019-01-25T10:57:44.781Z,96392.67
2019-01-25T11:00:16.103Z,96395.42
2019-01-25T11:03:01.962Z,96389.03
2019-01-25T11:05:24.747Z,96393.75
2019-01-25T11:07:54.816Z,96392.61
2019-01-25T11:10:24.309Z,96377.63
2019-01-25T11:13:00.750Z,96378.91
2019-01-25T11:15:27.358Z,96375.69
2019-01-25T11:17:59.533Z,96378.23
2019-01-25T11:20:29.580Z,96376.28
2019-01-25T11:23:00.601Z,96362.78
2019-01-25T11:25:35.897Z,96369.89
2019-01-25T11:28:05.818Z,96356.77
2019-01-25T11:30:38.686Z,96353.66
2019-01-25T11:33:10.458Z,96351.31
2019-01-25T11:35:40.260Z,96353.70
2019-01-25T11:38:15.275Z,96348.88
2019-01-25T11:40:50.725Z,96359.73
2019-01-25T11:43:21.320Z,96350.87
2019-01-25T11:46:12.497Z,96349.58
2019-01-25T11:48:42.227Z,96351.05
2019-01-25T11:51:14.794Z,96362.25
2019-01-25T11:53:43.995Z,96357.74
2019-01-25T11:56:15.187Z,96354.52
2019-01-25T11:58:48.621Z,96350.16
2019-01-25T12:01:23.328Z,96355.06
2019-01-25T12:03:53.804Z,96359.24
2019-01-25T12:06:30.019Z,96356.76
2019-01-25T12:09:01.335Z,96384.63
2019-01-25T12:11:30.739Z,96363.41
2019-01-25T12:14:00.592Z,96362.09
2019-01-25T12:16:30.069Z,96361.88
2019-01-25T12:19:01.705Z,96368.81
2019-01-25T12:21:32.002Z,96364.89
2019-01-25T12:24:01.172Z,96360.48
2019-01-25T12:26:30.392Z,96359.30
2019-01-25T12:29:03.699Z,96365.30
2019-01-25T12:31:38.013Z,96364.77
2019-01-25T12:34:07.344Z,96363.62
2019-01-25T12:36:39.354Z,96354.09
2019-01-25T12:39:10.239Z,96360.59
2019-01-25T12:41:39.396Z,96364.22
2019-01-25T12:44:09.430Z,96364.33
2019-01-25T12:46:38.756Z,96365.86
2019-01-25T12:49:11.745Z,96392.09
2019-01-25T12:51:50.761Z,96366.55
2019-01-25T12:54:23.796Z,96374.97
2019-01-25T12:56:55.713Z,96376.51
2019-01-25T12:59:24.950Z,96358.48
2019-01-25T13:01:54.286Z,96377.35
2019-01-25T13:04:26.245Z,96373.61
2019-01-25T13:06:55.370Z,96381.73
2019-01-25T13:09:27.162Z,96389.24
2019-01-25T13:11:56.341Z,96394.73
2019-01-25T13:14:26.551Z,96384.88
2019-01-25T13:16:56.478Z,96387.00
2019-01-25T13:19:28.598Z,96380.94
2019-01-25T13:22:03.726Z,96379.38
2019-01-25T13:24:35.603Z,96376.19
2019-01-25T13:27:11.435Z,96368.22
2019-01-25T13:29:42.818Z,96368.67
2019-01-25T13:32:21.404Z,96370.44
2019-01-25T13:34:50.571Z,96364.56
2019-01-25T13:37:19.840Z,96368.71
2019-01-25T13:39:55.631Z,96366.20
2019-01-25T13:42:25.837Z,96371.27
2019-01-25T13:44:55.497Z,94852.48
2019-01-25T13:47:27.603Z,96377.61
2019-01-25T13:49:56.883Z,96373.20
2019-01-25T13:52:26.031Z,96374.17
2019-01-25T13:54:55.175Z,96376.08
2019-01-25T13:57:27.900Z,96385.03
2019-01-25T13:59:57.786Z,96377.33
2019-01-25T14:02:27.022Z,96372.73
2019-01-25T14:04:59.781Z,96386.08
2019-01-25T14:07:31.073Z,96288.31
2019-01-25T14:10:05.959Z,96383.48
2019-01-25T14:12:37.433Z,96390.06
2019-01-25T14:15:11.992Z,96385.61
2019-01-25T14:17:42.121Z,96384.23
2019-01-25T14:20:22.940Z,96388.77
2019-01-25T14:22:48.020Z,96385.41
2019-01-25T14:25:17.237Z,96391.05
2019-01-25T14:27:46.874Z,96398.95
2019-01-25T14:30:39.601Z,96398.98
2019-01-25T14:33:12.828Z,96404.44
2019-01-25T14:35:45.803Z,96408.92
2019-01-25T14:38:20.303Z,96404.24
2019-01-25T14:40:51.531Z,96412.52
2019-01-25T14:43:20.679Z,96408.00
2019-01-25T14:45:50.004Z,96402.01
2019-01-25T14:48:19.293Z,96405.02
2019-01-25T14:50:49.342Z,96409.45
2019-01-25T14:53:27.969Z,96414.42
2019-01-25T14:55:54.027Z,96412.77
2019-01-25T14:58:25.359Z,96414.42
2019-01-25T15:00:59.248Z,96407.50
2019-01-25T15:03:30.432Z,96420.56
2019-01-25T15:06:02.212Z,96418.48
2019-01-25T15:08:31.826Z,96424.42
2019-01-25T15:11:05.140Z,96427.77
2019-01-25T15:13:35.548Z,96424.08
2019-01-25T15:16:06.201Z,96416.16
2019-01-25T15:18:36.704Z,96414.98
2019-01-25T15:21:10.358Z,96415.25
2019-01-25T15:23:39.493Z,96422.02
2019-01-25T15:26:08.869Z,96425.91
2019-01-25T15:28:48.205Z,96455.34
2019-01-25T15:31:18.394Z,96414.80
2019-01-25T15:33:50.409Z,96412.42
2019-01-25T15:36:19.980Z,96412.85
2019-01-25T15:38:49.335Z,96412.67
2019-01-25T15:41:19.313Z,96412.25
2019-01-25T15:43:51.563Z,96404.42
2019-01-25T15:46:20.888Z,96430.98
2019-01-25T15:48:51.172Z,96406.30
2019-01-25T15:51:21.128Z,96406.20
2019-01-25T15:53:50.316Z,96393.67
2019-01-25T15:56:19.556Z,96400.59
2019-01-25T15:58:50.080Z,96414.25
2019-01-25T16:01:22.013Z,96422.50
2019-01-25T16:03:51.504Z,96491.35
2019-01-25T16:06:21.825Z,96431.86
2019-01-25T16:09:02.558Z,96429.41
2019-01-25T16:11:33.067Z,96430.52
2019-01-25T16:14:03.604Z,96436.69
2019-01-25T16:16:35.881Z,96441.77
2019-01-25T16:19:05.271Z,96444.55
2019-01-25T16:21:34.550Z,96445.02
2019-01-25T16:24:04.521Z,96436.33
2019-01-25T16:26:37.480Z,96430.80
2019-01-25T16:29:07.603Z,96435.37
2019-01-25T16:31:39.285Z,96431.85
2019-01-25T16:34:08.504Z,96434.09
2019-01-25T16:36:37.898Z,96445.22
2019-01-25T16:39:09.170Z,96445.14
2019-01-25T16:41:38.335Z,96442.67
2019-01-25T16:44:09.117Z,96443.45
2019-01-25T16:46:41.225Z,96443.71
2019-01-25T16:49:23.958Z,96448.94
2019-01-25T16:51:53.464Z,96441.69
2019-01-25T16:54:27.469Z,96427.78
2019-01-25T16:57:00.069Z,96426.23
2019-01-25T16:59:37.762Z,96434.44
2019-01-25T17:02:08.334Z,96430.25
2019-01-25T17:04:39.259Z,96428.03
2019-01-25T17:07:10.451Z,96429.41
2019-01-25T17:09:41.435Z,96433.74
2019-01-25T17:12:12.166Z,96439.41
2019-01-25T17:14:42.589Z,96428.03
2019-01-25T17:17:11.738Z,96428.10
2019-01-25T17:19:44.320Z,96428.32
2019-01-25T17:22:16.753Z,96425.81
2019-01-25T17:24:48.855Z,96429.84
2019-01-25T17:27:21.457Z,96425.89
2019-01-25T17:29:50.919Z,96434.90
2019-01-25T17:32:21.342Z,96434.14
2019-01-25T17:34:53.379Z,96439.23
2019-01-25T17:37:27.750Z,96437.88
2019-01-25T17:39:56.929Z,96437.98
2019-01-25T17:42:26.406Z,96442.30
2019-01-25T17:44:56.022Z,96437.97
2019-01-25T17:47:29.360Z,96433.36
2019-01-25T17:50:01.416Z,96433.93
2019-01-25T17:52:31.861Z,96437.12
2019-01-25T17:55:01.290Z,96422.20
2019-01-25T17:57:33.265Z,96419.80
2019-01-25T18:00:04.308Z,96416.34
2019-01-25T18:02:33.457Z,96431.00
2019-01-25T18:05:02.609Z,96426.58
2019-01-25T18:07:35.130Z,96428.63
2019-01-25T18:10:07.276Z,96436.25
2019-01-25T18:12:42.546Z,96440.27
2019-01-25T18:15:15.578Z,96447.10
2019-01-25T18:17:46.085Z,96482.17
2019-01-25T18:20:16.312Z,96447.49
2019-01-25T18:22:47.604Z,96444.19
2019-01-25T18:25:34.655Z,96430.38
2019-01-25T18:28:11.315Z,96434.16
2019-01-25T18:30:49.932Z,96439.89
2019-01-25T18:33:19.179Z,96451.36
2019-01-25T18:35:48.327Z,96449.10
2019-01-25T18:38:19.121Z,96452.00
2019-01-25T18:40:48.320Z,96458.51
2019-01-25T18:43:21.218Z,96459.70
2019-01-25T18:45:51.632Z,96452.50
2019-01-25T18:48:27.177Z,96445.48
2019-01-25T18:50:56.537Z,96439.39
2019-01-25T18:53:29.875Z,96433.29
2019-01-25T18:55:57.072Z,96421.19
2019-01-25T18:58:26.229Z,96419.39
2019-01-25T19:01:03.182Z,96424.25
2019-01-25T19:03:34.130Z,96426.20
2019-01-25T19:06:07.715Z,96425.16
2019-01-25T19:08:36.961Z,96456.91
2019-01-25T19:11:06.211Z,96414.66
2019-01-25T19:13:36.592Z,96411.86
2019-01-25T19:16:10.132Z,96410.77
2019-01-25T19:18:43.455Z,96403.77
2019-01-25T19:21:11.655Z,96404.45
2019-01-25T19:23:40.743Z,96401.82
2019-01-25T19:26:10.170Z,96395.27
2019-01-25T19:28:43.984Z,96395.95
2019-01-25T19:31:19.995Z,96388.55
2019-01-25T19:33:49.893Z,96399.55
2019-01-25T19:36:19.922Z,96393.64
2019-01-25T19:38:53.440Z,96387.16
2019-01-25T19:41:25.422Z,96388.95
2019-01-25T19:43:56.833Z,96385.18
2019-01-25T19:49:20.180Z,96388.53
2019-01-25T19:51:49.320Z,96383.42
2019-01-25T19:54:19.535Z,96389.44
2019-01-25T19:56:51.245Z,96394.86
2019-01-25T19:59:24.304Z,96393.45
2019-01-25T20:01:53.447Z,96395.55
2019-01-25T20:04:23.758Z,96395.03
2019-01-25T20:06:56.126Z,96399.95
2019-01-25T20:09:31.001Z,96397.84
2019-01-25T20:12:02.522Z,96405.77
2019-01-25T20:14:31.664Z,96405.05
2019-01-25T20:17:00.947Z,96409.25
2019-01-25T20:19:34.598Z,96409.47
2019-01-25T20:22:04.140Z,96408.86
2019-01-25T20:24:36.530Z,96407.08
2019-01-25T20:27:06.192Z,96416.45
2019-01-25T20:29:36.849Z,96405.77
2019-01-25T20:32:06.566Z,96403.52
2019-01-25T20:34:38.286Z,96404.15
2019-01-25T20:37:10.142Z,96401.69
2019-01-25T20:39:39.429Z,96400.79
2019-01-25T20:42:08.508Z,96403.95
2019-01-25T20:44:38.669Z,96402.28
2019-01-25T20:47:13.788Z,96408.07
2019-01-25T20:49:42.987Z,96403.25
2019-01-25T20:52:13.272Z,96397.77
2019-01-25T20:54:52.285Z,96388.22
2019-01-25T20:57:24.638Z,96388.70
2019-01-25T21:00:08.578Z,96385.84
2019-01-25T21:02:35.777Z,96385.88
2019-01-25T21:05:05.528Z,96387.74
2019-01-25T21:07:35.895Z,96378.11
2019-01-25T21:10:07.168Z,96369.31
2019-01-25T21:12:36.347Z,96364.08
2019-01-25T21:15:08.330Z,96365.10
2019-01-25T21:17:37.561Z,96364.67
2019-01-25T21:20:24.717Z,96353.09
2019-01-25T21:22:55.192Z,96355.41
2019-01-25T21:25:24.534Z,96358.49
2019-01-25T21:27:53.663Z,96355.55
2019-01-25T21:30:25.236Z,96351.33
2019-01-25T21:33:00.810Z,96347.02
2019-01-25T21:35:30.822Z,96350.17
2019-01-25T21:38:07.590Z,96353.08
2019-01-25T21:40:38.684Z,96350.98
2019-01-25T21:43:10.629Z,96343.88
2019-01-25T21:45:43.326Z,96342.28
2019-01-25T21:48:18.101Z,96335.26
2019-01-25T21:50:50.863Z,96330.22
2019-01-25T21:53:21.174Z,96328.92
2019-01-25T21:55:50.778Z,96334.95
2019-01-25T21:58:20.131Z,96330.59
2019-01-25T22:00:49.269Z,96334.09
2019-01-25T22:03:18.455Z,96330.87
2019-01-25T22:05:50.360Z,96022.48
2019-01-25T22:08:20.876Z,96334.00
2019-01-25T22:10:52.679Z,96330.30
2019-01-25T22:13:25.030Z,96332.55
2019-01-25T22:15:56.611Z,96323.86
2019-01-25T22:18:27.221Z,96310.09
2019-01-25T22:20:59.312Z,96309.30
2019-01-25T22:23:28.490Z,96311.48
2019-01-25T22:25:57.834Z,96307.05
2019-01-25T22:28:29.159Z,96305.86
2019-01-25T22:30:59.795Z,96302.79
2019-01-25T22:33:29.205Z,96301.18
2019-01-25T22:36:01.535Z,96304.56
2019-01-25T22:38:30.845Z,96304.06
2019-01-25T22:41:03.073Z,96300.93
2019-01-25T22:43:32.212Z,96288.38
2019-01-25T22:46:01.383Z,96280.77
2019-01-25T22:48:30.498Z,96285.99
2019-01-25T22:51:05.394Z,96286.50
2019-01-25T22:53:38.201Z,96282.07
2019-01-25T22:56:07.975Z,96282.66
2019-01-25T22:58:41.976Z,96281.97
2019-01-25T23:01:30.387Z,96271.82
2019-01-25T23:04:27.945Z,96277.34
2019-01-25T23:07:17.213Z,96262.36
2019-01-25T23:09:55.127Z,96261.23
2019-01-25T23:12:25.907Z,96260.02
2019-01-25T23:14:55.041Z,96260.95
2019-01-25T23:17:25.498Z,96259.56
2019-01-25T23:19:54.617Z,96251.38
2019-01-25T23:22:25.486Z,96246.86
2019-01-25T23:24:57.598Z,96234.66
2019-01-25T23:27:29.122Z,96236.94
2019-01-25T23:29:58.597Z,96148.80
2019-01-25T23:32:27.733Z,96230.34
2019-01-25T23:34:58.244Z,96224.73
2019-01-25T23:37:33.283Z,96219.50
2019-01-25T23:40:09.143Z,96223.30
2019-01-25T23:42:40.737Z,96218.11
2019-01-25T23:45:12.663Z,96214.83
2019-01-25T23:47:41.853Z,96211.92
2019-01-25T23:50:13.377Z,96215.89
2019-01-25T23:52:45.241Z,96216.42
2019-01-25T23:55:18.526Z,96220.09
2019-01-25T23:57:51.060Z,96226.91
